sensor_id;sensor_type;location;lat;lon;timestamp;P1;durP1;ratioP1;P2;durP2;ratioP2
31182;SDS011;17813;0.000;0.000;2022-08-19T02:53:13;23.97;;;21.87;;
31182;SDS011;17813;0.000;0.000;2022-08-19T02:55:43;23.97;;;21.77;;
31182;SDS011;17813;0.000;0.000;2022-08-19T02:58:13;23.03;;;20.93;;
31182;SDS011;17813;0.000;0.000;2022-08-19T03:00:59;24.27;;;22.00;;
31182;SDS011;17813;0.000;0.000;2022-08-19T03:03:27;20.87;;;18.97;;
31182;SDS011;17813;0.000;0.000;2022-08-19T03:06:09;20.97;;;19.07;;
31182;SDS011;17813;0.000;0.000;2022-08-19T03:08:42;22.20;;;20.20;;
31182;SDS011;17813;0.000;0.000;2022-08-19T03:11:12;21.83;;;19.83;;
31182;SDS011;17813;0.000;0.000;2022-08-19T03:13:46;22.63;;;20.53;;
31182;SDS011;17813;0.000;0.000;2022-08-19T03:16:16;21.03;;;19.20;;
31182;SDS011;17813;0.000;0.000;2022-08-19T03:18:44;20.77;;;18.97;;
31182;SDS011;17813;0.000;0.000;2022-08-19T03:21:14;20.30;;;18.60;;
31182;SDS011;17813;0.000;0.000;2022-08-19T03:23:43;21.00;;;19.10;;
31182;SDS011;17813;0.000;0.000;2022-08-19T03:26:11;20.97;;;19.10;;
31182;SDS011;17813;0.000;0.000;2022-08-19T03:28:40;21.73;;;19.77;;
31182;SDS011;17813;0.000;0.000;2022-08-19T03:31:12;21.80;;;19.80;;
31182;SDS011;17813;0.000;0.000;2022-08-19T03:33:40;22.00;;;20.00;;
31182;SDS011;17813;0.000;0.000;2022-08-19T03:36:09;21.67;;;19.67;;
31182;SDS011;17813;0.000;0.000;2022-08-19T03:38:38;21.20;;;19.20;;
31182;SDS011;17813;0.000;0.000;2022-08-19T03:41:12;21.10;;;19.20;;
31182;SDS011;17813;0.000;0.000;2022-08-19T03:43:41;21.00;;;19.20;;
31182;SDS011;17813;0.000;0.000;2022-08-19T03:46:11;24.10;;;21.90;;
31182;SDS011;17813;0.000;0.000;2022-08-19T03:48:41;21.87;;;19.87;;
31182;SDS011;17813;0.000;0.000;2022-08-19T03:51:30;23.83;;;21.43;;
31182;SDS011;17813;0.000;0.000;2022-08-19T03:54:09;22.90;;;21.00;;
31182;SDS011;17813;0.000;0.000;2022-08-19T03:56:40;23.23;;;21.13;;
31182;SDS011;17813;0.000;0.000;2022-08-19T03:59:11;23.77;;;21.67;;
31182;SDS011;17813;0.000;0.000;2022-08-19T04:01:41;23.30;;;21.00;;
31182;SDS011;17813;0.000;0.000;2022-08-19T04:04:08;22.90;;;20.80;;
31182;SDS011;17813;0.000;0.000;2022-08-19T04:06:36;23.60;;;21.50;;
31182;SDS011;17813;0.000;0.000;2022-08-19T04:09:05;23.67;;;21.57;;
31182;SDS011;17813;0.000;0.000;2022-08-19T04:48:59;23.53;;;21.43;;
31182;SDS011;17813;0.000;0.000;2022-08-19T04:51:31;23.07;;;20.97;;
31182;SDS011;17813;0.000;0.000;2022-08-19T04:54:00;23.13;;;21.03;;
31182;SDS011;17813;0.000;0.000;2022-08-19T04:56:29;24.00;;;21.90;;
31182;SDS011;17813;0.000;0.000;2022-08-19T04:58:57;24.10;;;21.87;;
31182;SDS011;17813;0.000;0.000;2022-08-19T05:01:32;23.30;;;21.20;;
31182;SDS011;17813;0.000;0.000;2022-08-19T05:04:03;23.90;;;21.80;;
31182;SDS011;17813;0.000;0.000;2022-08-19T05:06:32;23.20;;;21.03;;
31182;SDS011;17813;0.000;0.000;2022-08-19T05:09:05;23.70;;;21.60;;
31182;SDS011;17813;0.000;0.000;2022-08-19T05:11:33;25.87;;;23.57;;
31182;SDS011;17813;0.000;0.000;2022-08-19T05:14:05;25.83;;;23.40;;
31182;SDS011;17813;0.000;0.000;2022-08-19T05:16:34;24.43;;;22.27;;
31182;SDS011;17813;0.000;0.000;2022-08-19T05:19:01;26.53;;;24.13;;
31182;SDS011;17813;0.000;0.000;2022-08-19T05:21:46;24.10;;;21.90;;
31182;SDS011;17813;0.000;0.000;2022-08-19T05:24:32;26.90;;;24.40;;
31182;SDS011;17813;0.000;0.000;2022-08-19T05:27:03;26.30;;;23.93;;
31182;SDS011;17813;0.000;0.000;2022-08-19T05:29:33;25.37;;;23.07;;
31182;SDS011;17813;0.000;0.000;2022-08-19T05:32:02;28.47;;;25.87;;
31182;SDS011;17813;0.000;0.000;2022-08-19T05:34:31;27.40;;;24.70;;
31182;SDS011;17813;0.000;0.000;2022-08-19T05:36:59;25.27;;;22.97;;
31182;SDS011;17813;0.000;0.000;2022-08-19T05:39:28;25.67;;;23.40;;
31182;SDS011;17813;0.000;0.000;2022-08-19T05:41:58;27.80;;;25.20;;
31182;SDS011;17813;0.000;0.000;2022-08-19T05:44:29;26.20;;;23.90;;
31182;SDS011;17813;0.000;0.000;2022-08-19T05:46:59;26.80;;;24.30;;
31182;SDS011;17813;0.000;0.000;2022-08-19T06:48:36;26.23;;;23.70;;
31182;SDS011;17813;0.000;0.000;2022-08-19T06:51:04;26.07;;;23.63;;
31182;SDS011;17813;0.000;0.000;2022-08-19T06:53:33;26.60;;;24.10;;
31182;SDS011;17813;0.000;0.000;2022-08-19T06:56:01;27.70;;;25.00;;
31182;SDS011;17813;0.000;0.000;2022-08-19T06:58:31;28.70;;;25.90;;
31182;SDS011;17813;0.000;0.000;2022-08-19T07:01:02;26.20;;;23.70;;
31182;SDS011;17813;0.000;0.000;2022-08-19T07:03:32;26.80;;;24.13;;
31182;SDS011;17813;0.000;0.000;2022-08-19T07:06:03;29.40;;;26.60;;
31182;SDS011;17813;0.000;0.000;2022-08-19T07:08:37;27.90;;;25.20;;
31182;SDS011;17813;0.000;0.000;2022-08-19T07:11:09;28.93;;;26.13;;
31182;SDS011;17813;0.000;0.000;2022-08-19T07:13:38;29.80;;;26.83;;
31182;SDS011;17813;0.000;0.000;2022-08-19T07:16:11;30.63;;;27.63;;
31182;SDS011;17813;0.000;0.000;2022-08-19T07:18:40;28.60;;;25.83;;
31182;SDS011;17813;0.000;0.000;2022-08-19T07:21:11;30.27;;;27.30;;
31182;SDS011;17813;0.000;0.000;2022-08-19T07:23:43;28.57;;;25.77;;
31182;SDS011;17813;0.000;0.000;2022-08-19T07:26:12;29.73;;;26.80;;
31182;SDS011;17813;0.000;0.000;2022-08-19T07:28:43;27.60;;;25.00;;
31182;SDS011;17813;0.000;0.000;2022-08-19T07:31:16;30.67;;;27.63;;
31182;SDS011;17813;0.000;0.000;2022-08-19T07:33:49;33.80;;;30.20;;
31182;SDS011;17813;0.000;0.000;2022-08-19T07:36:18;32.30;;;27.60;;
31182;SDS011;17813;0.000;0.000;2022-08-19T07:38:54;30.67;;;27.70;;
31182;SDS011;17813;0.000;0.000;2022-08-19T07:41:22;30.73;;;27.73;;
31182;SDS011;17813;0.000;0.000;2022-08-19T07:43:54;30.90;;;27.80;;
31182;SDS011;17813;0.000;0.000;2022-08-19T07:46:25;29.00;;;26.13;;
31182;SDS011;17813;0.000;0.000;2022-08-19T07:49:06;31.33;;;28.17;;
31182;SDS011;17813;0.000;0.000;2022-08-19T07:51:34;29.80;;;26.80;;
31182;SDS011;17813;0.000;0.000;2022-08-19T07:54:01;30.60;;;27.50;;
31182;SDS011;17813;0.000;0.000;2022-08-19T07:56:30;30.90;;;27.80;;
31182;SDS011;17813;0.000;0.000;2022-08-19T07:59:02;30.13;;;27.23;;
31182;SDS011;17813;0.000;0.000;2022-08-19T08:01:33;29.10;;;26.20;;
31182;SDS011;17813;0.000;0.000;2022-08-19T08:04:01;28.30;;;25.60;;
31182;SDS011;17813;0.000;0.000;2022-08-19T08:06:47;28.37;;;25.50;;
31182;SDS011;17813;0.000;0.000;2022-08-19T08:09:35;28.77;;;26.10;;
31182;SDS011;17813;0.000;0.000;2022-08-19T08:12:05;27.30;;;24.50;;
31182;SDS011;17813;0.000;0.000;2022-08-19T08:17:14;27.47;;;24.70;;
31182;SDS011;17813;0.000;0.000;2022-08-19T08:19:43;27.20;;;24.57;;
31182;SDS011;17813;0.000;0.000;2022-08-19T08:22:14;26.57;;;24.00;;
31182;SDS011;17813;0.000;0.000;2022-08-19T08:25:11;26.87;;;24.03;;
31182;SDS011;17813;0.000;0.000;2022-08-19T08:27:45;26.20;;;23.60;;
31182;SDS011;17813;0.000;0.000;2022-08-19T08:30:15;25.73;;;23.20;;
31182;SDS011;17813;0.000;0.000;2022-08-19T08:32:49;25.47;;;23.07;;
31182;SDS011;17813;0.000;0.000;2022-08-19T08:35:18;26.80;;;24.20;;
31182;SDS011;17813;0.000;0.000;2022-08-19T08:37:48;26.20;;;23.60;;
31182;SDS011;17813;0.000;0.000;2022-08-19T08:45:32;24.67;;;22.40;;
31182;SDS011;17813;0.000;0.000;2022-08-19T08:48:16;25.70;;;23.30;;
31182;SDS011;17813;0.000;0.000;2022-08-19T08:51:07;25.47;;;22.97;;
31182;SDS011;17813;0.000;0.000;2022-08-19T08:53:39;26.43;;;23.87;;
31182;SDS011;17813;0.000;0.000;2022-08-19T08:56:08;25.83;;;23.20;;
31182;SDS011;17813;0.000;0.000;2022-08-19T08:58:48;26.17;;;23.57;;
31182;SDS011;17813;0.000;0.000;2022-08-19T09:01:25;25.20;;;22.87;;
31182;SDS011;17813;0.000;0.000;2022-08-19T09:03:53;25.53;;;23.03;;
31182;SDS011;17813;0.000;0.000;2022-08-19T09:09:17;25.53;;;23.13;;
31182;SDS011;17813;0.000;0.000;2022-08-19T09:12:00;26.20;;;23.70;;
31182;SDS011;17813;0.000;0.000;2022-08-19T09:17:32;24.90;;;22.60;;
31182;SDS011;17813;0.000;0.000;2022-08-19T09:22:46;26.60;;;24.10;;
31182;SDS011;17813;0.000;0.000;2022-08-19T09:25:19;27.87;;;25.17;;
31182;SDS011;17813;0.000;0.000;2022-08-19T09:27:50;28.60;;;25.90;;
31182;SDS011;17813;0.000;0.000;2022-08-19T09:30:24;28.40;;;25.67;;
31182;SDS011;17813;0.000;0.000;2022-08-19T09:32:52;24.77;;;22.47;;
31182;SDS011;17813;0.000;0.000;2022-08-19T09:35:23;25.80;;;23.33;;
31182;SDS011;17813;0.000;0.000;2022-08-19T09:37:53;28.23;;;25.37;;
31182;SDS011;17813;0.000;0.000;2022-08-19T09:40:20;27.10;;;24.60;;
31182;SDS011;17813;0.000;0.000;2022-08-19T09:42:48;28.63;;;25.67;;
31182;SDS011;17813;0.000;0.000;2022-08-19T09:45:15;26.77;;;24.37;;
31182;SDS011;17813;0.000;0.000;2022-08-19T09:47:48;26.20;;;23.60;;
31182;SDS011;17813;0.000;0.000;2022-08-19T11:51:56;5.35;;;4.88;;
31182;SDS011;17813;0.000;0.000;2022-08-19T11:54:24;5.10;;;4.60;;
31182;SDS011;17813;0.000;0.000;2022-08-19T11:56:50;5.50;;;5.00;;
31182;SDS011;17813;0.000;0.000;2022-08-19T11:59:18;5.93;;;5.00;;
31182;SDS011;17813;0.000;0.000;2022-08-19T12:01:44;5.43;;;5.03;;
31182;SDS011;17813;0.000;0.000;2022-08-19T12:04:12;5.45;;;4.95;;
31182;SDS011;17813;0.000;0.000;2022-08-19T12:06:39;5.20;;;4.80;;
31182;SDS011;17813;0.000;0.000;2022-08-19T12:09:07;5.60;;;5.00;;
31182;SDS011;17813;0.000;0.000;2022-08-19T12:11:36;5.57;;;4.88;;
31182;SDS011;17813;0.000;0.000;2022-08-19T12:14:04;5.70;;;5.20;;
31182;SDS011;17813;0.000;0.000;2022-08-19T12:16:31;5.80;;;5.30;;
31182;SDS011;17813;0.000;0.000;2022-08-19T12:18:58;5.60;;;5.20;;
31182;SDS011;17813;0.000;0.000;2022-08-19T12:21:29;5.35;;;4.95;;
31182;SDS011;17813;0.000;0.000;2022-08-19T12:23:59;5.13;;;4.70;;
31182;SDS011;17813;0.000;0.000;2022-08-19T12:26:28;5.55;;;5.05;;
31182;SDS011;17813;0.000;0.000;2022-08-19T12:28:57;6.55;;;5.38;;
31182;SDS011;17813;0.000;0.000;2022-08-19T12:31:25;5.17;;;4.77;;
31182;SDS011;17813;0.000;0.000;2022-08-19T12:33:53;5.38;;;4.85;;
31182;SDS011;17813;0.000;0.000;2022-08-19T12:36:21;4.90;;;4.50;;
31182;SDS011;17813;0.000;0.000;2022-08-19T12:38:48;5.40;;;4.77;;
31182;SDS011;17813;0.000;0.000;2022-08-19T12:41:16;5.57;;;5.07;;
31182;SDS011;17813;0.000;0.000;2022-08-19T12:43:44;4.90;;;4.50;;
31182;SDS011;17813;0.000;0.000;2022-08-19T12:46:13;5.07;;;4.68;;
31182;SDS011;17813;0.000;0.000;2022-08-19T12:48:41;4.78;;;4.38;;
31182;SDS011;17813;0.000;0.000;2022-08-19T12:51:12;4.90;;;4.50;;
31182;SDS011;17813;0.000;0.000;2022-08-19T12:53:41;4.90;;;4.50;;
31182;SDS011;17813;0.000;0.000;2022-08-19T12:56:09;5.25;;;4.63;;
31182;SDS011;17813;0.000;0.000;2022-08-19T12:58:37;4.63;;;4.03;;
31182;SDS011;17813;0.000;0.000;2022-08-19T13:01:11;4.47;;;4.18;;
31182;SDS011;17813;0.000;0.000;2022-08-19T13:03:40;4.40;;;4.00;;
31182;SDS011;17813;0.000;0.000;2022-08-19T13:06:09;3.80;;;3.50;;
31182;SDS011;17813;0.000;0.000;2022-08-19T13:08:36;4.80;;;4.32;;
31182;SDS011;17813;0.000;0.000;2022-08-19T13:11:13;4.32;;;4.03;;
31182;SDS011;17813;0.000;0.000;2022-08-19T13:13:43;4.13;;;3.83;;
31182;SDS011;17813;0.000;0.000;2022-08-19T13:16:11;4.13;;;3.77;;
31182;SDS011;17813;0.000;0.000;2022-08-19T13:18:40;5.90;;;4.60;;
31182;SDS011;17813;0.000;0.000;2022-08-19T13:21:09;4.45;;;4.15;;
31182;SDS011;17813;0.000;0.000;2022-08-19T13:23:39;4.70;;;4.30;;
31182;SDS011;17813;0.000;0.000;2022-08-19T13:26:07;4.75;;;4.35;;
31182;SDS011;17813;0.000;0.000;2022-08-19T13:28:35;5.00;;;4.60;;
31182;SDS011;17813;0.000;0.000;2022-08-19T13:31:22;4.90;;;4.50;;
31182;SDS011;17813;0.000;0.000;2022-08-19T13:34:09;5.13;;;4.50;;
31182;SDS011;17813;0.000;0.000;2022-08-19T13:36:37;4.40;;;4.10;;
31182;SDS011;17813;0.000;0.000;2022-08-19T13:39:04;4.85;;;4.35;;
31182;SDS011;17813;0.000;0.000;2022-08-19T13:41:36;5.00;;;4.47;;
31182;SDS011;17813;0.000;0.000;2022-08-19T13:44:08;6.07;;;4.20;;
31182;SDS011;17813;0.000;0.000;2022-08-19T13:46:35;4.47;;;4.07;;
31182;SDS011;17813;0.000;0.000;2022-08-19T13:49:03;4.53;;;4.13;;
31182;SDS011;17813;0.000;0.000;2022-08-19T13:51:30;4.47;;;4.07;;
31182;SDS011;17813;0.000;0.000;2022-08-19T14:52:21;4.97;;;4.57;;
31182;SDS011;17813;0.000;0.000;2022-08-19T14:54:48;4.63;;;4.22;;
31182;SDS011;17813;0.000;0.000;2022-08-19T14:57:15;4.40;;;4.07;;
31182;SDS011;17813;0.000;0.000;2022-08-19T14:59:42;4.53;;;4.13;;
31182;SDS011;17813;0.000;0.000;2022-08-19T15:02:10;5.47;;;5.03;;
31182;SDS011;17813;0.000;0.000;2022-08-19T15:04:37;5.15;;;4.63;;
31182;SDS011;17813;0.000;0.000;2022-08-19T15:07:06;5.00;;;4.60;;
31182;SDS011;17813;0.000;0.000;2022-08-19T15:09:33;4.53;;;4.22;;
31182;SDS011;17813;0.000;0.000;2022-08-19T15:12:00;4.63;;;4.32;;
31182;SDS011;17813;0.000;0.000;2022-08-19T15:14:28;4.68;;;4.28;;
31182;SDS011;17813;0.000;0.000;2022-08-19T15:16:59;5.40;;;4.90;;
31182;SDS011;17813;0.000;0.000;2022-08-19T15:19:28;4.80;;;4.40;;
31182;SDS011;17813;0.000;0.000;2022-08-19T15:21:56;5.03;;;4.60;;
31182;SDS011;17813;0.000;0.000;2022-08-19T15:24:23;5.13;;;4.63;;
31182;SDS011;17813;0.000;0.000;2022-08-19T15:26:55;4.57;;;4.27;;
31182;SDS011;17813;0.000;0.000;2022-08-19T15:29:22;4.63;;;4.32;;
31182;SDS011;17813;0.000;0.000;2022-08-19T15:31:52;4.53;;;4.18;;
31182;SDS011;17813;0.000;0.000;2022-08-19T15:34:23;4.80;;;4.30;;
31182;SDS011;17813;0.000;0.000;2022-08-19T15:36:51;4.67;;;4.27;;
31182;SDS011;17813;0.000;0.000;2022-08-19T15:39:18;4.30;;;3.90;;
31182;SDS011;17813;0.000;0.000;2022-08-19T15:41:46;3.87;;;3.57;;
31182;SDS011;17813;0.000;0.000;2022-08-19T15:44:17;4.10;;;3.80;;
31182;SDS011;17813;0.000;0.000;2022-08-19T15:46:46;4.07;;;3.73;;
31182;SDS011;17813;0.000;0.000;2022-08-19T15:49:15;3.92;;;3.60;;
31182;SDS011;17813;0.000;0.000;2022-08-19T15:51:44;3.85;;;3.55;;
31182;SDS011;17813;0.000;0.000;2022-08-19T15:54:14;4.07;;;3.70;;
31182;SDS011;17813;0.000;0.000;2022-08-19T15:56:47;3.90;;;3.60;;
31182;SDS011;17813;0.000;0.000;2022-08-19T15:59:35;3.90;;;3.60;;
31182;SDS011;17813;0.000;0.000;2022-08-19T16:02:23;3.90;;;3.57;;
31182;SDS011;17813;0.000;0.000;2022-08-19T16:05:12;5.40;;;3.60;;
31182;SDS011;17813;0.000;0.000;2022-08-19T16:08:00;4.33;;;3.67;;
31182;SDS011;17813;0.000;0.000;2022-08-19T16:10:28;4.27;;;3.87;;
31182;SDS011;17813;0.000;0.000;2022-08-19T16:12:55;4.20;;;3.80;;
31182;SDS011;17813;0.000;0.000;2022-08-19T16:15:27;3.70;;;3.40;;
31182;SDS011;17813;0.000;0.000;2022-08-19T16:18:09;3.90;;;3.60;;
31182;SDS011;17813;0.000;0.000;2022-08-19T16:20:36;3.77;;;3.47;;
31182;SDS011;17813;0.000;0.000;2022-08-19T16:23:03;3.97;;;3.67;;
31182;SDS011;17813;0.000;0.000;2022-08-19T16:25:30;4.00;;;3.70;;
31182;SDS011;17813;0.000;0.000;2022-08-19T16:27:57;3.93;;;3.63;;
31182;SDS011;17813;0.000;0.000;2022-08-19T16:30:25;3.70;;;3.40;;
31182;SDS011;17813;0.000;0.000;2022-08-19T16:32:53;3.57;;;3.37;;
31182;SDS011;17813;0.000;0.000;2022-08-19T16:35:20;3.72;;;3.42;;
31182;SDS011;17813;0.000;0.000;2022-08-19T16:37:47;3.93;;;3.53;;
31182;SDS011;17813;0.000;0.000;2022-08-19T16:40:14;4.20;;;3.90;;
31182;SDS011;17813;0.000;0.000;2022-08-19T16:42:41;3.70;;;3.40;;
31182;SDS011;17813;0.000;0.000;2022-08-19T16:45:08;3.47;;;3.27;;
31182;SDS011;17813;0.000;0.000;2022-08-19T16:47:35;4.10;;;3.70;;
31182;SDS011;17813;0.000;0.000;2022-08-19T16:50:02;4.18;;;3.58;;
31182;SDS011;17813;0.000;0.000;2022-08-19T18:54:04;4.30;;;4.00;;
31182;SDS011;17813;0.000;0.000;2022-08-19T18:56:31;5.93;;;4.60;;
31182;SDS011;17813;0.000;0.000;2022-08-19T18:59:00;5.13;;;4.70;;
31182;SDS011;17813;0.000;0.000;2022-08-19T19:01:29;4.60;;;4.20;;
31182;SDS011;17813;0.000;0.000;2022-08-19T19:04:01;5.50;;;4.27;;
31182;SDS011;17813;0.000;0.000;2022-08-19T19:06:32;5.00;;;4.60;;
31182;SDS011;17813;0.000;0.000;2022-08-19T19:09:04;5.03;;;4.50;;
31182;SDS011;17813;0.000;0.000;2022-08-19T19:11:47;5.03;;;4.53;;
31182;SDS011;17813;0.000;0.000;2022-08-19T19:14:37;4.80;;;4.40;;
31182;SDS011;17813;0.000;0.000;2022-08-19T19:17:07;4.90;;;4.50;;
31182;SDS011;17813;0.000;0.000;2022-08-19T19:19:36;4.87;;;4.43;;
31182;SDS011;17813;0.000;0.000;2022-08-19T19:22:08;4.47;;;4.07;;
31182;SDS011;17813;0.000;0.000;2022-08-19T19:24:39;5.53;;;4.30;;
31182;SDS011;17813;0.000;0.000;2022-08-19T19:27:10;4.50;;;4.20;;
31182;SDS011;17813;0.000;0.000;2022-08-19T19:29:38;4.43;;;4.13;;
31182;SDS011;17813;0.000;0.000;2022-08-19T19:32:14;5.37;;;4.87;;
31182;SDS011;17813;0.000;0.000;2022-08-19T19:34:44;5.77;;;5.37;;
31182;SDS011;17813;0.000;0.000;2022-08-19T19:37:12;5.20;;;4.70;;
31182;SDS011;17813;0.000;0.000;2022-08-19T19:39:41;5.43;;;4.93;;
31182;SDS011;17813;0.000;0.000;2022-08-19T19:42:10;7.33;;;4.70;;
31182;SDS011;17813;0.000;0.000;2022-08-19T19:44:42;5.10;;;4.70;;
31182;SDS011;17813;0.000;0.000;2022-08-19T19:47:12;5.10;;;4.60;;
31182;SDS011;17813;0.000;0.000;2022-08-19T19:49:40;5.10;;;4.60;;
31182;SDS011;17813;0.000;0.000;2022-08-19T19:52:07;5.30;;;4.80;;
31182;SDS011;17813;0.000;0.000;2022-08-19T19:54:35;5.13;;;4.60;;
31182;SDS011;17813;0.000;0.000;2022-08-19T19:57:02;5.50;;;5.07;;
31182;SDS011;17813;0.000;0.000;2022-08-19T19:59:30;5.50;;;5.00;;
31182;SDS011;17813;0.000;0.000;2022-08-19T20:01:58;4.90;;;4.50;;
31182;SDS011;17813;0.000;0.000;2022-08-19T20:04:25;5.47;;;4.97;;
31182;SDS011;17813;0.000;0.000;2022-08-19T20:06:53;7.33;;;4.80;;
31182;SDS011;17813;0.000;0.000;2022-08-19T20:09:21;5.77;;;5.23;;
31182;SDS011;17813;0.000;0.000;2022-08-19T20:11:50;5.60;;;5.20;;
31182;SDS011;17813;0.000;0.000;2022-08-19T20:14:29;5.27;;;4.87;;
31182;SDS011;17813;0.000;0.000;2022-08-19T20:16:58;5.77;;;5.13;;
31182;SDS011;17813;0.000;0.000;2022-08-19T20:19:27;5.83;;;5.33;;
31182;SDS011;17813;0.000;0.000;2022-08-19T20:21:57;5.80;;;5.20;;
31182;SDS011;17813;0.000;0.000;2022-08-19T20:24:26;5.00;;;4.60;;
31182;SDS011;17813;0.000;0.000;2022-08-19T20:27:00;6.30;;;4.87;;
31182;SDS011;17813;0.000;0.000;2022-08-19T20:29:29;5.30;;;4.80;;
31182;SDS011;17813;0.000;0.000;2022-08-19T20:31:56;5.10;;;4.70;;
31182;SDS011;17813;0.000;0.000;2022-08-19T20:34:25;6.03;;;4.90;;
31182;SDS011;17813;0.000;0.000;2022-08-19T20:36:52;5.93;;;5.20;;
31182;SDS011;17813;0.000;0.000;2022-08-19T20:39:19;6.30;;;5.20;;
31182;SDS011;17813;0.000;0.000;2022-08-19T20:41:46;6.00;;;5.40;;
31182;SDS011;17813;0.000;0.000;2022-08-19T20:44:13;5.97;;;5.47;;
31182;SDS011;17813;0.000;0.000;2022-08-19T20:46:45;6.33;;;5.73;;
31182;SDS011;17813;0.000;0.000;2022-08-19T20:49:16;5.90;;;5.07;;
31182;SDS011;17813;0.000;0.000;2022-08-19T20:51:44;5.90;;;5.40;;
31182;SDS011;17813;0.000;0.000;2022-08-19T21:55:40;6.27;;;5.67;;
31182;SDS011;17813;0.000;0.000;2022-08-19T21:58:06;6.37;;;5.80;;
31182;SDS011;17813;0.000;0.000;2022-08-19T22:00:33;5.97;;;5.47;;
31182;SDS011;17813;0.000;0.000;2022-08-19T22:03:00;7.17;;;6.03;;
31182;SDS011;17813;0.000;0.000;2022-08-19T22:05:28;7.17;;;6.57;;
31182;SDS011;17813;0.000;0.000;2022-08-19T22:07:56;5.80;;;5.40;;
31182;SDS011;17813;0.000;0.000;2022-08-19T22:10:24;7.23;;;6.33;;
31182;SDS011;17813;0.000;0.000;2022-08-19T22:12:54;6.30;;;5.80;;
31182;SDS011;17813;0.000;0.000;2022-08-19T22:15:22;8.33;;;6.27;;
31182;SDS011;17813;0.000;0.000;2022-08-19T22:17:51;6.53;;;5.90;;
31182;SDS011;17813;0.000;0.000;2022-08-19T22:20:20;6.30;;;5.70;;
31182;SDS011;17813;0.000;0.000;2022-08-19T22:22:51;6.80;;;6.07;;
31182;SDS011;17813;0.000;0.000;2022-08-19T22:25:23;6.70;;;6.00;;
31182;SDS011;17813;0.000;0.000;2022-08-19T22:27:52;6.93;;;6.30;;
31182;SDS011;17813;0.000;0.000;2022-08-19T22:30:20;6.93;;;6.23;;
31182;SDS011;17813;0.000;0.000;2022-08-19T22:32:50;7.17;;;6.53;;
31182;SDS011;17813;0.000;0.000;2022-08-19T22:35:26;7.23;;;6.63;;
31182;SDS011;17813;0.000;0.000;2022-08-19T22:37:56;7.17;;;6.47;;
31182;SDS011;17813;0.000;0.000;2022-08-19T22:40:24;7.60;;;6.90;;
31182;SDS011;17813;0.000;0.000;2022-08-19T22:42:57;7.40;;;6.80;;
31182;SDS011;17813;0.000;0.000;2022-08-19T22:45:30;7.67;;;6.90;;
31182;SDS011;17813;0.000;0.000;2022-08-19T22:47:58;7.73;;;7.03;;
31182;SDS011;17813;0.000;0.000;2022-08-19T22:50:25;7.90;;;7.30;;
31182;SDS011;17813;0.000;0.000;2022-08-19T22:52:59;7.60;;;7.00;;
31182;SDS011;17813;0.000;0.000;2022-08-19T23:54:30;9.40;;;8.60;;
31182;SDS011;17813;0.000;0.000;2022-08-19T23:56:58;9.80;;;9.00;;
31182;SDS011;17813;0.000;0.000;2022-08-19T23:59:25;15.37;;;9.27;;
